sensor_id;sensor_type;location;lat;lon;timestamp;P1;durP1;ratioP1;P2;durP2;ratioP2
2860;SDS011;1438;50.922;6.704;2023-05-13T00:02:07;14.10;;;12.30;;
2860;SDS011;1438;50.922;6.704;2023-05-13T00:04:33;15.27;;;13.73;;
2860;SDS011;1438;50.922;6.704;2023-05-13T00:07:00;15.05;;;13.40;;
2860;SDS011;1438;50.922;6.704;2023-05-13T00:09:26;14.10;;;12.07;;
2860;SDS011;1438;50.922;6.704;2023-05-13T00:11:52;14.85;;;12.60;;
2860;SDS011;1438;50.922;6.704;2023-05-13T00:14:18;16.25;;;12.65;;
2860;SDS011;1438;50.922;6.704;2023-05-13T00:16:44;15.07;;;12.80;;
2860;SDS011;1438;50.922;6.704;2023-05-13T00:19:10;14.23;;;12.80;;
2860;SDS011;1438;50.922;6.704;2023-05-13T00:21:36;14.50;;;13.00;;
2860;SDS011;1438;50.922;6.704;2023-05-13T00:24:02;15.37;;;12.53;;
2860;SDS011;1438;50.922;6.704;2023-05-13T00:26:28;14.70;;;12.85;;
2860;SDS011;1438;50.922;6.704;2023-05-13T00:28:54;15.43;;;13.77;;
2860;SDS011;1438;50.922;6.704;2023-05-13T00:31:20;17.30;;;14.27;;
2860;SDS011;1438;50.922;6.704;2023-05-13T00:33:46;16.00;;;14.23;;
2860;SDS011;1438;50.922;6.704;2023-05-13T00:36:12;15.73;;;14.33;;
2860;SDS011;1438;50.922;6.704;2023-05-13T00:38:38;15.45;;;12.50;;
2860;SDS011;1438;50.922;6.704;2023-05-13T00:41:04;16.43;;;14.70;;
2860;SDS011;1438;50.922;6.704;2023-05-13T00:43:30;14.45;;;12.95;;
2860;SDS011;1438;50.922;6.704;2023-05-13T00:45:56;15.90;;;12.87;;
2860;SDS011;1438;50.922;6.704;2023-05-13T00:48:23;17.10;;;13.18;;
2860;SDS011;1438;50.922;6.704;2023-05-13T00:50:49;19.80;;;14.05;;
2860;SDS011;1438;50.922;6.704;2023-05-13T00:53:15;20.20;;;15.98;;
2860;SDS011;1438;50.922;6.704;2023-05-13T00:55:42;15.55;;;13.95;;
2860;SDS011;1438;50.922;6.704;2023-05-13T00:58:08;15.57;;;13.57;;
2860;SDS011;1438;50.922;6.704;2023-05-13T01:03:28;18.35;;;13.15;;
2860;SDS011;1438;50.922;6.704;2023-05-13T01:06:03;14.77;;;13.32;;
2860;SDS011;1438;50.922;6.704;2023-05-13T01:08:44;14.13;;;12.73;;
2860;SDS011;1438;50.922;6.704;2023-05-13T01:11:31;14.32;;;12.93;;
2860;SDS011;1438;50.922;6.704;2023-05-13T01:14:04;15.07;;;13.57;;
2860;SDS011;1438;50.922;6.704;2023-05-13T01:16:34;16.48;;;14.57;;
2860;SDS011;1438;50.922;6.704;2023-05-13T01:19:04;16.67;;;13.85;;
2860;SDS011;1438;50.922;6.704;2023-05-13T01:21:34;17.75;;;13.25;;
2860;SDS011;1438;50.922;6.704;2023-05-13T01:24:00;18.90;;;13.68;;
2860;SDS011;1438;50.922;6.704;2023-05-13T01:26:26;15.40;;;13.47;;
2860;SDS011;1438;50.922;6.704;2023-05-13T01:28:53;16.52;;;14.10;;
2860;SDS011;1438;50.922;6.704;2023-05-13T01:31:19;13.57;;;12.18;;
2860;SDS011;1438;50.922;6.704;2023-05-13T01:33:45;13.95;;;12.55;;
2860;SDS011;1438;50.922;6.704;2023-05-13T01:36:12;14.07;;;12.23;;
2860;SDS011;1438;50.922;6.704;2023-05-13T01:38:38;16.15;;;14.70;;
2860;SDS011;1438;50.922;6.704;2023-05-13T01:41:05;19.00;;;13.63;;
2860;SDS011;1438;50.922;6.704;2023-05-13T01:43:32;18.45;;;13.55;;
2860;SDS011;1438;50.922;6.704;2023-05-13T01:45:58;17.23;;;15.05;;
2860;SDS011;1438;50.922;6.704;2023-05-13T01:48:24;16.05;;;13.77;;
2860;SDS011;1438;50.922;6.704;2023-05-13T01:50:50;16.08;;;14.15;;
2860;SDS011;1438;50.922;6.704;2023-05-13T01:53:17;15.93;;;13.25;;
2860;SDS011;1438;50.922;6.704;2023-05-13T01:55:43;15.38;;;13.95;;
2860;SDS011;1438;50.922;6.704;2023-05-13T01:58:09;18.40;;;15.97;;
2860;SDS011;1438;50.922;6.704;2023-05-13T02:00:35;19.87;;;16.90;;
2860;SDS011;1438;50.922;6.704;2023-05-13T02:03:01;17.40;;;15.70;;
2860;SDS011;1438;50.922;6.704;2023-05-13T02:05:27;25.15;;;15.43;;
2860;SDS011;1438;50.922;6.704;2023-05-13T02:07:55;17.52;;;15.20;;
2860;SDS011;1438;50.922;6.704;2023-05-13T02:10:21;15.73;;;14.13;;
2860;SDS011;1438;50.922;6.704;2023-05-13T02:12:47;16.27;;;14.17;;
2860;SDS011;1438;50.922;6.704;2023-05-13T02:15:13;14.43;;;12.83;;
2860;SDS011;1438;50.922;6.704;2023-05-13T02:17:39;17.13;;;12.57;;
2860;SDS011;1438;50.922;6.704;2023-05-13T02:20:05;15.07;;;13.47;;
2860;SDS011;1438;50.922;6.704;2023-05-13T02:22:31;16.50;;;13.30;;
2860;SDS011;1438;50.922;6.704;2023-05-13T02:24:57;15.17;;;13.30;;
2860;SDS011;1438;50.922;6.704;2023-05-13T02:27:23;20.43;;;15.90;;
2860;SDS011;1438;50.922;6.704;2023-05-13T02:29:49;18.10;;;16.27;;
2860;SDS011;1438;50.922;6.704;2023-05-13T02:32:15;20.15;;;16.65;;
2860;SDS011;1438;50.922;6.704;2023-05-13T02:34:41;20.80;;;16.13;;
2860;SDS011;1438;50.922;6.704;2023-05-13T02:37:07;18.80;;;15.50;;
2860;SDS011;1438;50.922;6.704;2023-05-13T02:39:33;19.27;;;16.13;;
2860;SDS011;1438;50.922;6.704;2023-05-13T02:42:00;19.75;;;17.48;;
2860;SDS011;1438;50.922;6.704;2023-05-13T02:44:26;18.05;;;16.15;;
2860;SDS011;1438;50.922;6.704;2023-05-13T02:46:52;20.90;;;16.67;;
2860;SDS011;1438;50.922;6.704;2023-05-13T02:49:18;25.53;;;18.77;;
2860;SDS011;1438;50.922;6.704;2023-05-13T02:51:44;20.80;;;17.97;;
2860;SDS011;1438;50.922;6.704;2023-05-13T02:54:10;25.90;;;18.87;;
2860;SDS011;1438;50.922;6.704;2023-05-13T02:56:36;22.83;;;18.38;;
2860;SDS011;1438;50.922;6.704;2023-05-13T02:59:02;29.37;;;19.87;;
2860;SDS011;1438;50.922;6.704;2023-05-13T03:01:28;24.37;;;20.73;;
2860;SDS011;1438;50.922;6.704;2023-05-13T03:03:54;30.42;;;22.63;;
2860;SDS011;1438;50.922;6.704;2023-05-13T03:06:20;37.37;;;22.50;;
2860;SDS011;1438;50.922;6.704;2023-05-13T03:08:46;27.63;;;23.60;;
2860;SDS011;1438;50.922;6.704;2023-05-13T03:11:12;31.95;;;22.77;;
2860;SDS011;1438;50.922;6.704;2023-05-13T03:13:38;34.93;;;23.57;;
2860;SDS011;1438;50.922;6.704;2023-05-13T03:16:04;29.77;;;25.23;;
2860;SDS011;1438;50.922;6.704;2023-05-13T03:18:30;30.73;;;23.20;;
2860;SDS011;1438;50.922;6.704;2023-05-13T03:20:56;33.00;;;26.20;;
2860;SDS011;1438;50.922;6.704;2023-05-13T03:23:22;33.40;;;23.98;;
2860;SDS011;1438;50.922;6.704;2023-05-13T03:25:48;33.95;;;23.88;;
2860;SDS011;1438;50.922;6.704;2023-05-13T03:28:15;28.92;;;22.90;;
2860;SDS011;1438;50.922;6.704;2023-05-13T03:30:41;30.83;;;24.30;;
2860;SDS011;1438;50.922;6.704;2023-05-13T03:33:08;28.30;;;23.30;;
2860;SDS011;1438;50.922;6.704;2023-05-13T03:35:33;28.40;;;22.90;;
2860;SDS011;1438;50.922;6.704;2023-05-13T03:37:59;31.40;;;24.75;;
2860;SDS011;1438;50.922;6.704;2023-05-13T03:40:25;36.42;;;25.73;;
2860;SDS011;1438;50.922;6.704;2023-05-13T03:42:51;33.80;;;27.13;;
2860;SDS011;1438;50.922;6.704;2023-05-13T03:45:17;33.73;;;27.27;;
2860;SDS011;1438;50.922;6.704;2023-05-13T03:47:43;32.87;;;25.77;;
2860;SDS011;1438;50.922;6.704;2023-05-13T03:50:09;33.07;;;23.47;;
2860;SDS011;1438;50.922;6.704;2023-05-13T03:52:35;28.90;;;23.52;;
2860;SDS011;1438;50.922;6.704;2023-05-13T03:55:01;27.80;;;23.90;;
2860;SDS011;1438;50.922;6.704;2023-05-13T03:57:27;40.53;;;24.57;;
2860;SDS011;1438;50.922;6.704;2023-05-13T03:59:53;30.80;;;23.37;;
2860;SDS011;1438;50.922;6.704;2023-05-13T04:02:19;33.80;;;22.70;;
2860;SDS011;1438;50.922;6.704;2023-05-13T04:04:46;24.75;;;20.40;;
2860;SDS011;1438;50.922;6.704;2023-05-13T04:07:12;29.40;;;21.50;;
2860;SDS011;1438;50.922;6.704;2023-05-13T04:09:38;25.20;;;21.80;;
2860;SDS011;1438;50.922;6.704;2023-05-13T04:12:04;29.10;;;22.25;;
2860;SDS011;1438;50.922;6.704;2023-05-13T04:14:30;27.52;;;21.73;;
2860;SDS011;1438;50.922;6.704;2023-05-13T04:16:56;35.70;;;25.20;;
2860;SDS011;1438;50.922;6.704;2023-05-13T04:19:22;29.20;;;23.80;;
2860;SDS011;1438;50.922;6.704;2023-05-13T04:21:48;30.98;;;24.75;;
2860;SDS011;1438;50.922;6.704;2023-05-13T04:24:14;32.45;;;24.75;;
2860;SDS011;1438;50.922;6.704;2023-05-13T04:26:40;36.23;;;26.67;;
2860;SDS011;1438;50.922;6.704;2023-05-13T04:29:06;33.05;;;26.35;;
2860;SDS011;1438;50.922;6.704;2023-05-13T04:31:32;37.27;;;27.43;;
2860;SDS011;1438;50.922;6.704;2023-05-13T04:33:58;37.57;;;26.50;;
2860;SDS011;1438;50.922;6.704;2023-05-13T04:36:24;45.85;;;28.15;;
2860;SDS011;1438;50.922;6.704;2023-05-13T04:38:50;34.65;;;26.23;;
2860;SDS011;1438;50.922;6.704;2023-05-13T04:41:16;40.57;;;29.57;;
2860;SDS011;1438;50.922;6.704;2023-05-13T04:43:42;42.60;;;28.77;;
2860;SDS011;1438;50.922;6.704;2023-05-13T04:46:08;45.83;;;30.90;;
2860;SDS011;1438;50.922;6.704;2023-05-13T04:48:34;49.57;;;30.30;;
2860;SDS011;1438;50.922;6.704;2023-05-13T04:51:00;34.20;;;29.27;;
2860;SDS011;1438;50.922;6.704;2023-05-13T04:53:26;43.17;;;29.90;;
2860;SDS011;1438;50.922;6.704;2023-05-13T04:55:52;39.83;;;28.27;;
2860;SDS011;1438;50.922;6.704;2023-05-13T04:58:24;41.92;;;30.33;;
2860;SDS011;1438;50.922;6.704;2023-05-13T05:00:50;40.25;;;30.52;;
2860;SDS011;1438;50.922;6.704;2023-05-13T05:03:16;42.57;;;29.90;;
2860;SDS011;1438;50.922;6.704;2023-05-13T05:05:42;48.80;;;35.07;;
2860;SDS011;1438;50.922;6.704;2023-05-13T05:08:08;44.33;;;32.57;;
2860;SDS011;1438;50.922;6.704;2023-05-13T05:10:34;47.47;;;31.63;;
2860;SDS011;1438;50.922;6.704;2023-05-13T05:13:01;46.03;;;31.98;;
2860;SDS011;1438;50.922;6.704;2023-05-13T05:15:27;47.30;;;34.67;;
2860;SDS011;1438;50.922;6.704;2023-05-13T05:17:53;50.47;;;39.33;;
2860;SDS011;1438;50.922;6.704;2023-05-13T05:20:20;50.83;;;35.13;;
2860;SDS011;1438;50.922;6.704;2023-05-13T05:22:48;53.03;;;37.97;;
2860;SDS011;1438;50.922;6.704;2023-05-13T05:25:14;54.38;;;39.83;;
2860;SDS011;1438;50.922;6.704;2023-05-13T05:27:40;51.45;;;40.42;;
2860;SDS011;1438;50.922;6.704;2023-05-13T05:30:07;64.37;;;43.00;;
2860;SDS011;1438;50.922;6.704;2023-05-13T05:32:33;55.90;;;40.40;;
2860;SDS011;1438;50.922;6.704;2023-05-13T05:34:59;56.83;;;43.17;;
2860;SDS011;1438;50.922;6.704;2023-05-13T05:37:28;63.45;;;43.38;;
2860;SDS011;1438;50.922;6.704;2023-05-13T05:39:54;66.45;;;44.25;;
2860;SDS011;1438;50.922;6.704;2023-05-13T05:42:20;60.00;;;46.10;;
2860;SDS011;1438;50.922;6.704;2023-05-13T05:44:46;70.27;;;47.13;;
2860;SDS011;1438;50.922;6.704;2023-05-13T05:47:12;67.00;;;44.97;;
2860;SDS011;1438;50.922;6.704;2023-05-13T05:49:38;60.80;;;45.60;;
2860;SDS011;1438;50.922;6.704;2023-05-13T05:52:04;68.03;;;46.28;;
2860;SDS011;1438;50.922;6.704;2023-05-13T05:54:30;66.25;;;46.22;;
2860;SDS011;1438;50.922;6.704;2023-05-13T05:56:56;64.45;;;46.40;;
2860;SDS011;1438;50.922;6.704;2023-05-13T05:59:22;60.00;;;45.83;;
2860;SDS011;1438;50.922;6.704;2023-05-13T06:01:48;65.27;;;47.30;;
2860;SDS011;1438;50.922;6.704;2023-05-13T06:04:14;63.70;;;44.05;;
2860;SDS011;1438;50.922;6.704;2023-05-13T06:06:41;61.10;;;44.87;;
2860;SDS011;1438;50.922;6.704;2023-05-13T06:09:07;57.60;;;44.53;;
2860;SDS011;1438;50.922;6.704;2023-05-13T06:11:33;57.47;;;43.73;;
2860;SDS011;1438;50.922;6.704;2023-05-13T06:13:59;52.60;;;41.50;;
2860;SDS011;1438;50.922;6.704;2023-05-13T06:16:25;54.50;;;42.80;;
2860;SDS011;1438;50.922;6.704;2023-05-13T06:18:51;54.03;;;40.90;;
2860;SDS011;1438;50.922;6.704;2023-05-13T06:21:16;53.70;;;41.47;;
2860;SDS011;1438;50.922;6.704;2023-05-13T06:23:42;45.50;;;38.10;;
2860;SDS011;1438;50.922;6.704;2023-05-13T06:26:08;50.67;;;38.50;;
2860;SDS011;1438;50.922;6.704;2023-05-13T06:28:34;49.47;;;39.03;;
2860;SDS011;1438;50.922;6.704;2023-05-13T06:31:00;41.57;;;37.07;;
2860;SDS011;1438;50.922;6.704;2023-05-13T06:33:26;47.37;;;37.30;;
2860;SDS011;1438;50.922;6.704;2023-05-13T06:35:52;45.17;;;35.93;;
2860;SDS011;1438;50.922;6.704;2023-05-13T06:38:18;41.63;;;35.97;;
2860;SDS011;1438;50.922;6.704;2023-05-13T06:40:44;38.30;;;33.53;;
2860;SDS011;1438;50.922;6.704;2023-05-13T06:43:11;38.90;;;34.17;;
2860;SDS011;1438;50.922;6.704;2023-05-13T06:45:38;41.97;;;32.83;;
2860;SDS011;1438;50.922;6.704;2023-05-13T06:48:04;35.07;;;31.37;;
2860;SDS011;1438;50.922;6.704;2023-05-13T06:50:30;35.80;;;30.23;;
2860;SDS011;1438;50.922;6.704;2023-05-13T06:52:56;31.37;;;28.10;;
2860;SDS011;1438;50.922;6.704;2023-05-13T06:55:22;31.80;;;27.97;;
2860;SDS011;1438;50.922;6.704;2023-05-13T06:57:48;31.13;;;26.73;;
2860;SDS011;1438;50.922;6.704;2023-05-13T07:00:15;30.10;;;26.50;;
2860;SDS011;1438;50.922;6.704;2023-05-13T07:02:41;28.70;;;25.63;;
2860;SDS011;1438;50.922;6.704;2023-05-13T07:05:07;27.60;;;25.13;;
2860;SDS011;1438;50.922;6.704;2023-05-13T07:07:34;27.43;;;23.93;;
2860;SDS011;1438;50.922;6.704;2023-05-13T07:10:00;29.37;;;23.50;;
2860;SDS011;1438;50.922;6.704;2023-05-13T07:12:26;23.83;;;21.43;;
2860;SDS011;1438;50.922;6.704;2023-05-13T07:14:51;24.80;;;21.03;;
2860;SDS011;1438;50.922;6.704;2023-05-13T07:17:17;20.47;;;18.53;;
2860;SDS011;1438;50.922;6.704;2023-05-13T07:19:43;25.10;;;19.40;;
2860;SDS011;1438;50.922;6.704;2023-05-13T07:22:09;20.53;;;17.90;;
2860;SDS011;1438;50.922;6.704;2023-05-13T07:24:35;20.47;;;18.30;;
2860;SDS011;1438;50.922;6.704;2023-05-13T07:27:01;19.13;;;17.23;;
2860;SDS011;1438;50.922;6.704;2023-05-13T07:29:29;19.30;;;16.80;;
2860;SDS011;1438;50.922;6.704;2023-05-13T07:31:55;20.43;;;16.80;;
2860;SDS011;1438;50.922;6.704;2023-05-13T07:34:21;21.10;;;17.10;;
2860;SDS011;1438;50.922;6.704;2023-05-13T07:36:46;21.00;;;16.70;;
2860;SDS011;1438;50.922;6.704;2023-05-13T07:39:12;19.97;;;15.83;;
2860;SDS011;1438;50.922;6.704;2023-05-13T07:41:38;16.13;;;14.23;;
2860;SDS011;1438;50.922;6.704;2023-05-13T07:44:04;17.73;;;14.67;;
2860;SDS011;1438;50.922;6.704;2023-05-13T07:46:35;18.13;;;14.63;;
2860;SDS011;1438;50.922;6.704;2023-05-13T07:49:01;16.23;;;12.90;;
2860;SDS011;1438;50.922;6.704;2023-05-13T07:51:30;17.50;;;13.47;;
2860;SDS011;1438;50.922;6.704;2023-05-13T07:53:56;15.10;;;13.60;;
2860;SDS011;1438;50.922;6.704;2023-05-13T07:56:22;18.63;;;13.93;;
2860;SDS011;1438;50.922;6.704;2023-05-13T07:58:48;15.83;;;14.13;;
2860;SDS011;1438;50.922;6.704;2023-05-13T08:01:14;15.50;;;13.87;;
2860;SDS011;1438;50.922;6.704;2023-05-13T08:03:40;13.90;;;11.83;;
2860;SDS011;1438;50.922;6.704;2023-05-13T08:06:06;16.30;;;13.13;;
2860;SDS011;1438;50.922;6.704;2023-05-13T08:08:32;13.90;;;11.87;;
2860;SDS011;1438;50.922;6.704;2023-05-13T08:10:58;14.27;;;11.50;;
2860;SDS011;1438;50.922;6.704;2023-05-13T08:13:24;17.70;;;12.60;;
2860;SDS011;1438;50.922;6.704;2023-05-13T08:15:50;12.63;;;11.33;;
2860;SDS011;1438;50.922;6.704;2023-05-13T08:18:16;13.30;;;11.70;;
2860;SDS011;1438;50.922;6.704;2023-05-13T08:20:42;16.43;;;11.50;;
2860;SDS011;1438;50.922;6.704;2023-05-13T08:23:08;13.33;;;11.63;;
2860;SDS011;1438;50.922;6.704;2023-05-13T08:25:34;14.57;;;10.87;;
2860;SDS011;1438;50.922;6.704;2023-05-13T08:28:01;15.17;;;11.50;;
2860;SDS011;1438;50.922;6.704;2023-05-13T08:30:27;14.50;;;11.70;;
2860;SDS011;1438;50.922;6.704;2023-05-13T08:32:53;14.50;;;13.03;;
2860;SDS011;1438;50.922;6.704;2023-05-13T08:35:20;13.20;;;11.83;;
2860;SDS011;1438;50.922;6.704;2023-05-13T08:37:46;14.73;;;12.97;;
2860;SDS011;1438;50.922;6.704;2023-05-13T08:40:11;13.60;;;12.20;;
2860;SDS011;1438;50.922;6.704;2023-05-13T08:42:39;15.80;;;12.43;;
2860;SDS011;1438;50.922;6.704;2023-05-13T08:45:06;13.63;;;11.50;;
2860;SDS011;1438;50.922;6.704;2023-05-13T08:47:49;15.00;;;12.63;;
2860;SDS011;1438;50.922;6.704;2023-05-13T08:50:16;13.70;;;12.13;;
2860;SDS011;1438;50.922;6.704;2023-05-13T08:52:43;14.90;;;13.40;;
2860;SDS011;1438;50.922;6.704;2023-05-13T08:55:09;16.10;;;13.23;;
2860;SDS011;1438;50.922;6.704;2023-05-13T08:57:35;15.53;;;11.90;;
2860;SDS011;1438;50.922;6.704;2023-05-13T09:00:01;15.03;;;12.57;;
2860;SDS011;1438;50.922;6.704;2023-05-13T09:02:28;13.03;;;11.73;;
2860;SDS011;1438;50.922;6.704;2023-05-13T09:04:54;14.00;;;12.30;;
2860;SDS011;1438;50.922;6.704;2023-05-13T09:07:24;11.80;;;10.53;;
2860;SDS011;1438;50.922;6.704;2023-05-13T09:09:50;11.93;;;10.73;;
2860;SDS011;1438;50.922;6.704;2023-05-13T09:15:01;13.90;;;9.77;;
2860;SDS011;1438;50.922;6.704;2023-05-13T09:17:28;10.40;;;9.33;;
2860;SDS011;1438;50.922;6.704;2023-05-13T09:19:54;9.23;;;8.33;;
2860;SDS011;1438;50.922;6.704;2023-05-13T09:22:20;9.40;;;8.40;;
2860;SDS011;1438;50.922;6.704;2023-05-13T09:24:53;8.43;;;7.63;;
2860;SDS011;1438;50.922;6.704;2023-05-13T09:27:22;10.53;;;8.80;;
2860;SDS011;1438;50.922;6.704;2023-05-13T09:30:01;9.30;;;8.40;;
2860;SDS011;1438;50.922;6.704;2023-05-13T09:32:27;9.60;;;8.00;;
2860;SDS011;1438;50.922;6.704;2023-05-13T09:34:53;8.10;;;7.27;;
2860;SDS011;1438;50.922;6.704;2023-05-13T09:37:19;7.80;;;7.07;;
2860;SDS011;1438;50.922;6.704;2023-05-13T09:39:50;8.13;;;7.30;;
2860;SDS011;1438;50.922;6.704;2023-05-13T09:42:17;8.63;;;7.40;;
2860;SDS011;1438;50.922;6.704;2023-05-13T09:44:44;8.07;;;6.90;;
2860;SDS011;1438;50.922;6.704;2023-05-13T09:47:11;7.83;;;6.87;;
2860;SDS011;1438;50.922;6.704;2023-05-13T09:49:39;8.87;;;6.90;;
2860;SDS011;1438;50.922;6.704;2023-05-13T09:52:05;9.23;;;6.50;;
2860;SDS011;1438;50.922;6.704;2023-05-13T09:54:35;8.53;;;5.80;;
2860;SDS011;1438;50.922;6.704;2023-05-13T09:57:01;6.43;;;5.80;;
2860;SDS011;1438;50.922;6.704;2023-05-13T09:59:30;9.77;;;5.73;;
2860;SDS011;1438;50.922;6.704;2023-05-13T10:01:56;6.10;;;5.10;;
2860;SDS011;1438;50.922;6.704;2023-05-13T10:04:24;4.83;;;4.43;;
2860;SDS011;1438;50.922;6.704;2023-05-13T10:06:50;5.90;;;5.17;;
2860;SDS011;1438;50.922;6.704;2023-05-13T10:09:18;7.07;;;4.50;;
2860;SDS011;1438;50.922;6.704;2023-05-13T10:11:46;9.20;;;6.07;;
2860;SDS011;1438;50.922;6.704;2023-05-13T10:14:12;9.10;;;6.10;;
2860;SDS011;1438;50.922;6.704;2023-05-13T10:16:38;8.00;;;7.20;;
2860;SDS011;1438;50.922;6.704;2023-05-13T10:19:05;7.50;;;6.47;;
2860;SDS011;1438;50.922;6.704;2023-05-13T10:21:31;8.87;;;8.00;;
2860;SDS011;1438;50.922;6.704;2023-05-13T10:24:00;11.67;;;7.00;;
2860;SDS011;1438;50.922;6.704;2023-05-13T10:26:26;11.23;;;8.50;;
2860;SDS011;1438;50.922;6.704;2023-05-13T10:28:52;9.30;;;7.10;;
2860;SDS011;1438;50.922;6.704;2023-05-13T10:31:19;10.33;;;6.60;;
2860;SDS011;1438;50.922;6.704;2023-05-13T10:33:45;7.17;;;6.50;;
2860;SDS011;1438;50.922;6.704;2023-05-13T10:44:07;6.00;;;5.50;;
2860;SDS011;1438;50.922;6.704;2023-05-13T10:46:33;7.93;;;5.20;;
2860;SDS011;1438;50.922;6.704;2023-05-13T10:49:03;5.60;;;5.10;;
2860;SDS011;1438;50.922;6.704;2023-05-13T10:51:29;5.67;;;4.90;;
2860;SDS011;1438;50.922;6.704;2023-05-13T10:53:56;6.13;;;5.50;;
2860;SDS011;1438;50.922;6.704;2023-05-13T10:56:23;5.43;;;4.90;;
2860;SDS011;1438;50.922;6.704;2023-05-13T11:01:26;9.37;;;4.23;;
2860;SDS011;1438;50.922;6.704;2023-05-13T11:03:54;5.67;;;5.10;;
2860;SDS011;1438;50.922;6.704;2023-05-13T11:06:21;5.97;;;5.00;;
2860;SDS011;1438;50.922;6.704;2023-05-13T11:08:51;7.40;;;5.47;;
2860;SDS011;1438;50.922;6.704;2023-05-13T11:13:43;6.10;;;4.77;;
2860;SDS011;1438;50.922;6.704;2023-05-13T11:16:10;4.80;;;4.13;;
2860;SDS011;1438;50.922;6.704;2023-05-13T11:18:38;13.07;;;5.60;;
2860;SDS011;1438;50.922;6.704;2023-05-13T11:21:04;9.27;;;5.30;;
2860;SDS011;1438;50.922;6.704;2023-05-13T11:23:49;6.50;;;3.83;;
2860;SDS011;1438;50.922;6.704;2023-05-13T11:26:15;7.70;;;5.00;;
2860;SDS011;1438;50.922;6.704;2023-05-13T11:28:57;6.27;;;4.70;;
2860;SDS011;1438;50.922;6.704;2023-05-13T11:31:25;5.10;;;4.60;;
2860;SDS011;1438;50.922;6.704;2023-05-13T11:34:07;9.23;;;5.20;;
2860;SDS011;1438;50.922;6.704;2023-05-13T11:36:39;5.60;;;5.10;;
2860;SDS011;1438;50.922;6.704;2023-05-13T11:39:13;5.63;;;5.03;;
2860;SDS011;1438;50.922;6.704;2023-05-13T11:41:41;5.00;;;4.13;;
2860;SDS011;1438;50.922;6.704;2023-05-13T11:44:07;4.93;;;4.30;;
2860;SDS011;1438;50.922;6.704;2023-05-13T11:46:34;6.63;;;4.73;;
2860;SDS011;1438;50.922;6.704;2023-05-13T11:49:00;4.50;;;4.17;;
2860;SDS011;1438;50.922;6.704;2023-05-13T11:51:26;6.60;;;5.00;;
2860;SDS011;1438;50.922;6.704;2023-05-13T11:54:01;8.73;;;4.90;;
2860;SDS011;1438;50.922;6.704;2023-05-13T11:56:28;7.23;;;5.83;;
2860;SDS011;1438;50.922;6.704;2023-05-13T11:58:55;6.30;;;2.97;;
2860;SDS011;1438;50.922;6.704;2023-05-13T12:01:21;5.83;;;4.00;;
2860;SDS011;1438;50.922;6.704;2023-05-13T12:03:47;16.67;;;7.33;;
2860;SDS011;1438;50.922;6.704;2023-05-13T12:06:13;2.80;;;2.13;;
2860;SDS011;1438;50.922;6.704;2023-05-13T12:08:43;2.90;;;2.43;;
2860;SDS011;1438;50.922;6.704;2023-05-13T12:11:09;34.97;;;12.63;;
2860;SDS011;1438;50.922;6.704;2023-05-13T12:13:37;6.53;;;3.60;;
2860;SDS011;1438;50.922;6.704;2023-05-13T12:19:07;5.00;;;2.80;;
2860;SDS011;1438;50.922;6.704;2023-05-13T12:21:33;13.20;;;4.70;;
2860;SDS011;1438;50.922;6.704;2023-05-13T12:23:59;3.13;;;2.70;;
2860;SDS011;1438;50.922;6.704;2023-05-13T12:26:25;11.13;;;4.03;;
2860;SDS011;1438;50.922;6.704;2023-05-13T12:29:00;14.33;;;6.30;;
2860;SDS011;1438;50.922;6.704;2023-05-13T12:31:26;3.53;;;2.67;;
2860;SDS011;1438;50.922;6.704;2023-05-13T12:33:52;2.83;;;2.60;;
2860;SDS011;1438;50.922;6.704;2023-05-13T12:36:25;2.97;;;2.70;;
2860;SDS011;1438;50.922;6.704;2023-05-13T12:39:03;3.60;;;2.47;;
2860;SDS011;1438;50.922;6.704;2023-05-13T12:41:33;4.97;;;3.67;;
2860;SDS011;1438;50.922;6.704;2023-05-13T12:44:18;3.00;;;2.20;;
2860;SDS011;1438;50.922;6.704;2023-05-13T12:46:50;3.40;;;2.30;;
2860;SDS011;1438;50.922;6.704;2023-05-13T12:49:16;2.97;;;2.67;;
2860;SDS011;1438;50.922;6.704;2023-05-13T12:51:42;3.93;;;2.20;;
2860;SDS011;1438;50.922;6.704;2023-05-13T12:54:11;2.77;;;2.47;;
2860;SDS011;1438;50.922;6.704;2023-05-13T12:56:37;4.27;;;2.40;;
2860;SDS011;1438;50.922;6.704;2023-05-13T12:59:06;3.50;;;2.30;;
2860;SDS011;1438;50.922;6.704;2023-05-13T13:01:33;2.27;;;2.07;;
2860;SDS011;1438;50.922;6.704;2023-05-13T13:03:59;6.70;;;2.70;;
2860;SDS011;1438;50.922;6.704;2023-05-13T13:06:24;2.30;;;2.10;;
2860;SDS011;1438;50.922;6.704;2023-05-13T13:08:50;2.60;;;2.40;;
2860;SDS011;1438;50.922;6.704;2023-05-13T13:11:16;3.53;;;2.33;;
2860;SDS011;1438;50.922;6.704;2023-05-13T13:13:43;2.60;;;2.30;;
2860;SDS011;1438;50.922;6.704;2023-05-13T13:16:09;4.30;;;2.40;;
2860;SDS011;1438;50.922;6.704;2023-05-13T13:18:35;2.73;;;2.10;;
2860;SDS011;1438;50.922;6.704;2023-05-13T13:21:01;2.20;;;2.03;;
2860;SDS011;1438;50.922;6.704;2023-05-13T13:23:29;2.97;;;2.60;;
2860;SDS011;1438;50.922;6.704;2023-05-13T13:25:55;3.30;;;2.50;;
2860;SDS011;1438;50.922;6.704;2023-05-13T13:28:23;2.67;;;2.47;;
2860;SDS011;1438;50.922;6.704;2023-05-13T13:30:49;2.27;;;2.07;;
2860;SDS011;1438;50.922;6.704;2023-05-13T13:33:15;2.90;;;2.50;;
2860;SDS011;1438;50.922;6.704;2023-05-13T13:35:44;3.67;;;2.20;;
2860;SDS011;1438;50.922;6.704;2023-05-13T13:38:11;3.67;;;2.70;;
2860;SDS011;1438;50.922;6.704;2023-05-13T13:40:37;3.33;;;2.90;;
2860;SDS011;1438;50.922;6.704;2023-05-13T13:43:04;3.97;;;2.60;;
2860;SDS011;1438;50.922;6.704;2023-05-13T13:45:30;3.90;;;3.10;;
2860;SDS011;1438;50.922;6.704;2023-05-13T13:47:56;2.77;;;2.57;;
2860;SDS011;1438;50.922;6.704;2023-05-13T13:50:22;3.73;;;2.13;;
2860;SDS011;1438;50.922;6.704;2023-05-13T13:52:48;3.67;;;2.37;;
2860;SDS011;1438;50.922;6.704;2023-05-13T13:55:20;2.23;;;2.00;;
2860;SDS011;1438;50.922;6.704;2023-05-13T13:57:47;4.00;;;2.20;;
2860;SDS011;1438;50.922;6.704;2023-05-13T14:00:13;4.80;;;2.20;;
2860;SDS011;1438;50.922;6.704;2023-05-13T14:02:40;2.30;;;2.10;;
2860;SDS011;1438;50.922;6.704;2023-05-13T14:05:06;3.87;;;2.57;;
2860;SDS011;1438;50.922;6.704;2023-05-13T14:07:32;3.50;;;2.77;;
2860;SDS011;1438;50.922;6.704;2023-05-13T14:09:58;2.43;;;2.23;;
2860;SDS011;1438;50.922;6.704;2023-05-13T14:12:24;2.73;;;2.00;;
2860;SDS011;1438;50.922;6.704;2023-05-13T14:14:50;2.57;;;2.37;;
2860;SDS011;1438;50.922;6.704;2023-05-13T14:17:16;6.13;;;2.23;;
2860;SDS011;1438;50.922;6.704;2023-05-13T14:19:42;2.47;;;2.00;;
2860;SDS011;1438;50.922;6.704;2023-05-13T14:22:08;4.73;;;2.37;;
2860;SDS011;1438;50.922;6.704;2023-05-13T14:24:34;4.10;;;2.30;;
2860;SDS011;1438;50.922;6.704;2023-05-13T14:27:00;2.07;;;1.87;;
2860;SDS011;1438;50.922;6.704;2023-05-13T14:29:26;2.30;;;2.10;;
2860;SDS011;1438;50.922;6.704;2023-05-13T14:31:52;2.40;;;2.20;;
2860;SDS011;1438;50.922;6.704;2023-05-13T14:34:19;2.93;;;2.00;;
2860;SDS011;1438;50.922;6.704;2023-05-13T14:36:47;2.47;;;2.20;;
2860;SDS011;1438;50.922;6.704;2023-05-13T14:39:13;3.10;;;2.50;;
2860;SDS011;1438;50.922;6.704;2023-05-13T14:41:41;2.07;;;1.70;;
2860;SDS011;1438;50.922;6.704;2023-05-13T14:44:10;2.30;;;2.00;;
2860;SDS011;1438;50.922;6.704;2023-05-13T14:46:36;2.07;;;1.87;;
2860;SDS011;1438;50.922;6.704;2023-05-13T14:49:04;3.03;;;2.33;;
2860;SDS011;1438;50.922;6.704;2023-05-13T14:51:29;3.57;;;2.10;;
2860;SDS011;1438;50.922;6.704;2023-05-13T14:53:55;2.40;;;2.10;;
2860;SDS011;1438;50.922;6.704;2023-05-13T14:56:22;2.10;;;1.90;;
2860;SDS011;1438;50.922;6.704;2023-05-13T14:58:49;2.20;;;2.00;;
2860;SDS011;1438;50.922;6.704;2023-05-13T15:01:15;2.57;;;1.97;;
2860;SDS011;1438;50.922;6.704;2023-05-13T15:03:41;2.50;;;2.07;;
2860;SDS011;1438;50.922;6.704;2023-05-13T15:06:07;6.13;;;2.00;;
2860;SDS011;1438;50.922;6.704;2023-05-13T15:08:34;2.30;;;1.90;;
2860;SDS011;1438;50.922;6.704;2023-05-13T15:11:00;4.70;;;2.60;;
2860;SDS011;1438;50.922;6.704;2023-05-13T15:13:26;2.30;;;2.10;;
2860;SDS011;1438;50.922;6.704;2023-05-13T15:15:54;2.13;;;1.97;;
2860;SDS011;1438;50.922;6.704;2023-05-13T15:18:20;2.20;;;2.00;;